createdAt,value
2023-02-14T00:05:49.412Z,41.25
2023-02-14T00:15:54.766Z,41.13
2023-02-14T00:26:00.051Z,41.21
2023-02-14T00:36:05.023Z,41.40
2023-02-14T00:46:10.381Z,41.39
2023-02-14T00:56:15.418Z,41.54
2023-02-14T01:06:20.832Z,41.47
2023-02-14T01:16:25.985Z,41.41
2023-02-14T01:26:31.567Z,41.49
2023-02-14T01:36:36.879Z,41.54
2023-02-14T01:46:41.851Z,41.43
2023-02-14T01:56:47.001Z,41.52
2023-02-14T02:06:52.355Z,41.49
2023-02-14T02:16:57.337Z,41.56
2023-02-14T02:27:02.674Z,41.41
2023-02-14T02:37:07.824Z,41.62
2023-02-14T02:47:12.556Z,41.45
2023-02-14T02:57:17.625Z,41.44
2023-02-14T03:07:22.898Z,41.51
2023-02-14T03:17:28.218Z,42.23
2023-02-14T03:27:33.644Z,41.64
2023-02-14T03:37:38.991Z,41.65
2023-02-14T03:47:43.827Z,41.62
2023-02-14T03:57:49.056Z,41.50
2023-02-14T04:07:53.898Z,41.54
2023-02-14T04:17:59.115Z,41.50
2023-02-14T04:28:05.650Z,41.62
2023-02-14T04:38:10.922Z,41.63
2023-02-14T04:48:16.650Z,41.59
2023-02-14T04:58:21.867Z,41.62
2023-02-14T05:08:27.164Z,41.56
2023-02-14T05:18:32.306Z,41.63
2023-02-14T05:28:37.459Z,41.60
2023-02-14T05:38:42.605Z,41.59
2023-02-14T05:48:47.964Z,41.67
2023-02-14T05:58:53.122Z,41.65
2023-02-14T06:08:59.039Z,41.64
2023-02-14T06:19:04.255Z,41.67
2023-02-14T06:29:09.488Z,41.75
2023-02-14T06:39:14.682Z,41.69
2023-02-14T06:49:19.666Z,41.65
2023-02-14T06:59:24.720Z,41.68
2023-02-14T07:09:30.555Z,41.65
2023-02-14T07:19:35.894Z,41.64
2023-02-14T07:29:40.924Z,41.79
2023-02-14T07:39:46.493Z,41.68
2023-02-14T07:49:51.846Z,41.81
2023-02-14T07:59:57.147Z,41.71
2023-02-14T08:10:02.213Z,41.86
2023-02-14T08:20:07.514Z,41.98
2023-02-14T08:30:12.766Z,42.84
2023-02-14T08:40:18.509Z,40.88
2023-02-14T08:50:23.449Z,40.51
2023-02-14T09:00:28.829Z,38.33
2023-02-14T09:10:33.965Z,37.01
2023-02-14T09:20:39.238Z,37.88
2023-02-14T09:30:44.738Z,36.27
2023-02-14T09:40:49.956Z,37.33
2023-02-14T09:50:55.201Z,37.72
2023-02-14T10:01:01.248Z,36.93
2023-02-14T10:11:06.994Z,35.88
2023-02-14T10:21:12.026Z,36.64
2023-02-14T10:31:18.056Z,35.36
2023-02-14T10:41:23.541Z,34.85
2023-02-14T10:51:29.194Z,35.01
2023-02-14T11:01:34.521Z,33.50
2023-02-14T11:11:39.808Z,32.72
2023-02-14T11:21:44.998Z,32.87
2023-02-14T11:31:50.849Z,32.60
2023-02-14T11:41:56.249Z,32.54
2023-02-14T11:52:01.687Z,33.96
2023-02-14T12:02:07.183Z,34.61
2023-02-14T12:12:12.750Z,35.16
2023-02-14T12:22:18.368Z,35.63
2023-02-14T12:32:23.126Z,35.81
2023-02-14T12:42:28.497Z,36.19
2023-02-14T12:52:33.830Z,36.27
2023-02-14T13:02:39.572Z,36.49
2023-02-14T13:12:44.908Z,36.86
2023-02-14T13:22:50.281Z,36.96
2023-02-14T13:32:56.286Z,37.31
2023-02-14T13:43:01.391Z,37.45
2023-02-14T13:53:06.901Z,37.65
2023-02-14T14:03:12.163Z,37.44
2023-02-14T14:13:17.492Z,37.63
2023-02-14T14:23:23.055Z,37.98
2023-02-14T14:33:28.166Z,38.13
2023-02-14T14:43:33.169Z,38.14
2023-02-14T14:53:38.687Z,38.20
2023-02-14T15:03:44.034Z,38.31
2023-02-14T15:13:49.353Z,38.37
2023-02-14T15:23:54.495Z,38.53
2023-02-14T15:33:59.805Z,38.45
2023-02-14T15:44:05.105Z,38.42
2023-02-14T15:54:10.446Z,38.61
2023-02-14T16:04:15.584Z,38.60
2023-02-14T16:14:21.053Z,38.63
2023-02-14T16:24:26.611Z,38.61
2023-02-14T16:34:31.719Z,38.67
2023-02-14T16:44:37.059Z,38.71
2023-02-14T16:54:42.201Z,38.89
2023-02-14T17:04:48.064Z,38.85
2023-02-14T17:14:53.441Z,38.88
2023-02-14T17:24:58.979Z,38.89
2023-02-14T17:35:03.840Z,38.95
2023-02-14T17:45:09.018Z,38.95
2023-02-14T17:55:14.471Z,39.25
2023-02-14T18:05:19.718Z,38.91
2023-02-14T18:15:25.077Z,38.96
2023-02-14T18:25:30.158Z,38.99
2023-02-14T18:35:35.976Z,39.01
2023-02-14T18:45:41.484Z,39.03
2023-02-14T18:55:46.976Z,39.12
2023-02-14T19:05:52.020Z,39.31
2023-02-14T19:15:57.254Z,39.09
2023-02-14T19:26:03.777Z,39.13
2023-02-14T19:36:10.859Z,39.29
2023-02-14T19:46:16.122Z,39.17
2023-02-14T19:56:22.062Z,39.18
2023-02-14T20:06:27.161Z,39.20
2023-02-14T20:16:32.329Z,39.16
2023-02-14T20:26:37.801Z,39.11
2023-02-14T20:36:43.471Z,39.32
2023-02-14T20:46:48.836Z,39.31
2023-02-14T20:56:54.131Z,39.21
2023-02-14T21:06:59.388Z,39.08
2023-02-14T21:17:04.988Z,39.64
2023-02-14T21:27:10.469Z,38.97
2023-02-14T21:37:18.004Z,38.98
2023-02-14T21:47:23.648Z,39.00
2023-02-14T21:57:29.004Z,39.12
2023-02-14T22:07:34.618Z,39.06
2023-02-14T22:17:40.147Z,39.27
2023-02-14T22:27:46.044Z,39.21
2023-02-14T22:37:51.223Z,39.12
2023-02-14T22:47:56.094Z,39.13
2023-02-14T22:58:01.533Z,39.23
2023-02-14T23:08:07.161Z,39.07
2023-02-14T23:18:12.679Z,39.12
2023-02-14T23:28:18.252Z,39.12
2023-02-14T23:38:24.070Z,39.12
2023-02-14T23:48:29.193Z,39.15
2023-02-14T23:58:34.576Z,39.30
